Terminal Aerodrome Forecast
Issued by NWS

Home | Current Version | Previous Version | Text Only | Print | Product List | Glossary On
Versions: 1 2 3 4 5 6 7 8 9 10 11 12 13 14 15 16 17 18 19 20 21 22 23
000
FTUS43 KDLH 271731
TAFHIB
TAF
KHIB 271731Z 2718/2818 15010KT P6SM SCT040
     FM280200 14003KT P6SM SKC
     FM281100 15004KT P6SM VCSH SCT025 BKN040
     FM281700 18010G18KT P6SM VCSH SCT030=

USA.gov is the U.S. government's official web portal to all federal, state and local government web resources and services.